»·PEaware :: FDX258 KLAS-KDEN

FDX258 :: KLAS-KDEN

FLIGHT INFORMATION

Flight Status: Arrived
Operator:
Federal Express
More flights by this operator :: More flights under this callsign
Pilot: Brad M. (22842)
Aircraft: Unknown
(B77F)
More flights by this aircraft type
Origin: KLAS McCarran Intl
United States
Destination: KDEN Denver Intl
United States
More flights between these airports :: More routes between these airports
Route: STAAV8 DVC DCT WOLLF TELLR2
File this flight plan on PilotEdge
Remarks:
Altitude:
(Current/Filed)
37,000ft
Speed:
(Current/Filed)
400kts
Departed: 28-Apr-19 04:35 PM
Arrived: 28-Apr-19 05:54 PM
Distance/Time
Traveled:
544nm/1:19
Distance/Time
To Go:
Arrived

Flight Plot

Page will automatically refresh every two minutes.

Flight plan parsing failed; only flown route is shown


Map Options




Map Legend


Flown Route
Filed Route
Departure Airport
Arrival Airport
Navaid (VOR, NDB)
Fix

Horizontal Profiles

Position Reports

Time Latitude Longitude Heading Altitude Ground
Speed
28-Apr-19 15:58 36.082380 -115.125564 90 2194ft 0kts
28-Apr-19 15:58 36.082380 -115.125564 90 2194ft 0kts
28-Apr-19 15:59 36.082380 -115.125564 90 2194ft 0kts
28-Apr-19 16:00 36.082380 -115.125564 90 2194ft 0kts
28-Apr-19 16:01 36.082380 -115.125564 90 2194ft 0kts
28-Apr-19 16:02 36.082380 -115.125564 90 2194ft 0kts
28-Apr-19 16:03 36.082380 -115.125564 90 2194ft 0kts
28-Apr-19 16:04 36.082380 -115.125564 90 2194ft 0kts
28-Apr-19 16:05 36.082380 -115.125564 90 2194ft 0kts
28-Apr-19 16:06 36.082380 -115.125564 90 2194ft 0kts
28-Apr-19 16:07 36.082380 -115.125564 90 2194ft 0kts
28-Apr-19 16:08 36.082380 -115.125564 90 2194ft 0kts
28-Apr-19 16:09 36.082380 -115.125564 90 2194ft 0kts
28-Apr-19 16:10 36.082380 -115.125564 90 2194ft 0kts
28-Apr-19 16:11 36.082380 -115.125564 90 2194ft 0kts
28-Apr-19 16:12 36.082380 -115.125564 90 2194ft 0kts
28-Apr-19 16:13 36.082380 -115.125564 90 2194ft 0kts
28-Apr-19 16:14 36.082380 -115.125564 90 2194ft 0kts
28-Apr-19 16:15 36.082379 -115.125611 90 2194ft 1kts
28-Apr-19 16:16 36.082577 -115.126282 149 2194ft 2kts
28-Apr-19 16:17 36.083012 -115.126357 180 2194ft 0kts
28-Apr-19 16:18 36.083012 -115.126357 180 2194ft 0kts
28-Apr-19 16:19 36.083012 -115.126357 180 2194ft 0kts
28-Apr-19 16:20 36.082376 -115.126357 180 2194ft 9kts
28-Apr-19 16:21 36.080192 -115.126355 179 2194ft 4kts
28-Apr-19 16:22 36.078016 -115.126379 181 2194ft 8kts
28-Apr-19 16:23 36.077544 -115.124516 90 2194ft 0kts
28-Apr-19 16:24 36.077551 -115.123102 91 2194ft 6kts
28-Apr-19 16:25 36.077546 -115.122920 91 2194ft 0kts
28-Apr-19 16:26 36.077546 -115.122919 91 2194ft 0kts
28-Apr-19 16:27 36.077546 -115.122917 91 2194ft 0kts
28-Apr-19 16:28 36.077546 -115.122917 91 2194ft 0kts
28-Apr-19 16:29 36.077546 -115.122917 91 2194ft 0kts
28-Apr-19 16:30 36.077546 -115.122917 91 2194ft 0kts
28-Apr-19 16:31 36.077532 -115.122409 88 2194ft 3kts
28-Apr-19 16:32 36.076381 -115.121700 275 2194ft 3kts
28-Apr-19 16:33 36.076388 -115.121874 271 2194ft 0kts
28-Apr-19 16:34 36.076405 -115.140466 269 2194ft 154kts
28-Apr-19 16:35 36.077441 -115.203889 267 4593ft 194kts
28-Apr-19 16:36 36.086017 -115.278556 310 6315ft 245kts
28-Apr-19 16:37 36.152005 -115.289536 28 8895ft 268kts
28-Apr-19 16:38 36.190900 -115.206657 75 10516ft 319kts
28-Apr-19 16:39 36.198221 -115.086661 90 12430ft 384kts
28-Apr-19 16:40 36.198977 -114.946277 90 15258ft 419kts
28-Apr-19 16:41 36.200197 -114.798168 90 18338ft 440kts
28-Apr-19 16:42 36.198821 -114.645552 92 18700ft 442kts
28-Apr-19 16:43 36.197334 -114.492385 92 18711ft 444kts
28-Apr-19 16:44 36.195073 -114.336908 92 20964ft 459kts
28-Apr-19 16:45 36.200564 -114.174972 83 23413ft 483kts
28-Apr-19 16:46 36.221648 -114.006650 83 25685ft 505kts
28-Apr-19 16:47 36.242327 -113.830220 84 27784ft 526kts
28-Apr-19 16:48 36.264055 -113.647878 84 29714ft 544kts
28-Apr-19 16:49 36.285567 -113.462927 85 32146ft 540kts
28-Apr-19 16:50 36.306137 -113.279383 84 34155ft 538kts
28-Apr-19 16:51 36.355904 -113.104144 66 35889ft 540kts
28-Apr-19 16:52 36.419226 -112.935023 66 36929ft 539kts
28-Apr-19 16:53 36.481613 -112.766725 66 36922ft 537kts
28-Apr-19 16:54 36.544177 -112.597481 66 36921ft 537kts
28-Apr-19 16:55 36.605941 -112.428518 66 36905ft 538kts
28-Apr-19 16:56 36.667603 -112.258806 66 36900ft 538kts
28-Apr-19 16:57 36.729047 -112.088748 66 36889ft 538kts
28-Apr-19 16:58 36.790268 -111.918354 66 36862ft 539kts
28-Apr-19 16:59 36.851407 -111.747246 66 36825ft 540kts
28-Apr-19 17:00 36.912395 -111.575580 66 36796ft 540kts
28-Apr-19 17:01 36.973105 -111.403757 66 36791ft 542kts
28-Apr-19 17:02 37.033642 -111.231431 66 36798ft 542kts
28-Apr-19 17:03 37.094197 -111.058061 66 36812ft 543kts
28-Apr-19 17:04 37.154334 -110.884897 66 36826ft 544kts
28-Apr-19 17:05 37.214394 -110.710935 66 36837ft 544kts
28-Apr-19 17:06 37.274438 -110.535994 66 36851ft 544kts
28-Apr-19 17:07 37.334125 -110.361091 66 36866ft 545kts
28-Apr-19 17:08 37.393571 -110.185854 66 36882ft 546kts
28-Apr-19 17:09 37.452880 -110.009971 66 36898ft 546kts
28-Apr-19 17:10 37.512135 -109.833190 66 36913ft 548kts
28-Apr-19 17:11 37.571136 -109.656100 66 36924ft 548kts
28-Apr-19 17:12 37.629765 -109.479054 66 36929ft 548kts
28-Apr-19 17:13 37.688152 -109.301730 66 36926ft 548kts
28-Apr-19 17:14 37.746542 -109.123952 67 36917ft 548kts
28-Apr-19 17:15 37.804540 -108.945697 64 36912ft 547kts
28-Apr-19 17:16 37.880973 -108.780086 54 36912ft 546kts
28-Apr-19 17:17 37.961757 -108.616981 56 36918ft 546kts
28-Apr-19 17:18 38.041788 -108.452941 55 36949ft 547kts
28-Apr-19 17:19 38.121306 -108.288440 56 36962ft 547kts
28-Apr-19 17:20 38.200609 -108.123240 56 36981ft 547kts
28-Apr-19 17:21 38.279474 -107.958111 56 36960ft 547kts
28-Apr-19 17:22 38.358294 -107.792846 56 36946ft 547kts
28-Apr-19 17:23 38.436939 -107.625913 56 36951ft 549kts
28-Apr-19 17:24 38.513605 -107.456795 58 36982ft 551kts
28-Apr-19 17:25 38.589429 -107.286500 58 36970ft 552kts
28-Apr-19 17:26 38.665743 -107.116065 57 37013ft 553kts
28-Apr-19 17:27 38.741130 -106.947061 57 35497ft 545kts
28-Apr-19 17:28 38.815688 -106.777267 58 34198ft 553kts
28-Apr-19 17:29 38.892637 -106.604750 55 34025ft 557kts
28-Apr-19 17:30 38.970939 -106.436324 56 31805ft 547kts
28-Apr-19 17:31 39.047861 -106.268411 57 29637ft 529kts
28-Apr-19 17:32 39.121465 -106.104998 57 27181ft 525kts
28-Apr-19 17:33 39.193821 -105.941690 57 24814ft 524kts
28-Apr-19 17:34 39.264187 -105.781211 58 22747ft 509kts
28-Apr-19 17:35 39.332407 -105.625702 55 21190ft 480kts
28-Apr-19 17:36 39.425493 -105.515782 28 19597ft 445kts
28-Apr-19 17:37 39.526853 -105.430230 28 18103ft 413kts
28-Apr-19 17:38 39.617826 -105.352432 28 17786ft 373kts
28-Apr-19 17:39 39.693422 -105.266751 65 16796ft 366kts
28-Apr-19 17:40 39.691574 -105.138388 98 15746ft 356kts
28-Apr-19 17:41 39.679910 -105.012935 97 15037ft 335kts
28-Apr-19 17:43 39.669068 -104.897315 98 14160ft 311kts
28-Apr-19 17:44 39.672048 -104.792106 71 13145ft 290kts
28-Apr-19 17:45 39.698305 -104.691641 69 13019ft 293kts
28-Apr-19 17:46 39.724939 -104.587686 68 11791ft 303kts
28-Apr-19 17:47 39.744036 -104.490141 84 10778ft 257kts
28-Apr-19 17:48 39.758710 -104.405134 44 9629ft 235kts
28-Apr-19 17:49 39.814728 -104.396729 330 8715ft 204kts
28-Apr-19 17:50 39.853646 -104.449039 308 7907ft 212kts
28-Apr-19 17:51 39.877569 -104.514011 279 6840ft 179kts
28-Apr-19 17:52 39.876440 -104.569647 276 6115ft 136kts
28-Apr-19 17:53 39.877289 -104.618866 276 5488ft 135kts
28-Apr-19 17:54 39.877596 -104.653301 272 5444ft 40kts
28-Apr-19 17:55 39.875977 -104.657805 271 5444ft 11kts
28-Apr-19 17:56 39.876035 -104.661521 271 5444ft 9kts
28-Apr-19 17:57 39.872586 -104.662153 180 5444ft 17kts
28-Apr-19 17:58 39.868478 -104.662220 179 5444ft 12kts
28-Apr-19 17:59 39.864788 -104.662250 180 5444ft 15kts
28-Apr-19 17:59 39.860889 -104.662321 181 5444ft 18kts
28-Apr-19 18:01 39.855121 -104.662369 179 5444ft 15kts
28-Apr-19 18:02 39.851005 -104.662416 180 5444ft 17kts
28-Apr-19 18:02 39.846734 -104.662463 179 5444ft 17kts
28-Apr-19 18:03 39.842438 -104.662501 180 5444ft 13kts
28-Apr-19 18:05 39.838479 -104.662563 179 5444ft 11kts
28-Apr-19 18:06 39.834286 -104.662620 180 5444ft 19kts
28-Apr-19 18:06 39.830152 -104.662649 181 5444ft 13kts
28-Apr-19 18:07 39.829303 -104.665687 270 5444ft 10kts

Navigation Log

Ident Type
Flight plan parsing failed, navigation log unavailable